Terminal Aerodrome Forecast
Issued by NWS

Home | Current Version | Previous Version | Graphics & Text | Print | Product List | Glossary On
Versions: 1 2 3 4 5 6 7 8 9 10 11 12 13 14 15
146
FTUS43 KBIS 071735
TAFMOT
TAF
KMOT 071735Z 0718/0818 30028G41KT 1SM BLSN VCSH BKN035
     FM072300 30023G34KT 3SM BLSN VCSH OVC015
     FM080300 30019G27KT P6SM OVC008
     FM080600 29016G24KT P6SM BKN025
     FM081700 30011KT P6SM BKN008=

USA.gov is the U.S. government's official web portal to all federal, state and local government web resources and services.